createdAt,value
2018-08-31T00:00:34.691Z,101552.24
2018-08-31T00:03:03.377Z,101558.36
2018-08-31T00:05:45.477Z,101553.70
2018-08-31T00:09:27.830Z,101553.09
2018-08-31T00:12:36.520Z,101556.38
2018-08-31T00:15:05.153Z,101551.13
2018-08-31T00:17:33.609Z,101548.44
2018-08-31T00:20:02.896Z,101550.99
2018-08-31T00:22:31.322Z,101556.17
2018-08-31T00:25:16.600Z,101558.81
2018-08-31T00:27:56.294Z,101549.84
2018-08-31T00:30:35.912Z,101550.28
2018-08-31T00:33:46.948Z,101546.83
2018-08-31T00:37:22.680Z,101544.93
2018-08-31T00:40:04.994Z,101551.75
2018-08-31T00:42:44.773Z,101550.81
2018-08-31T00:45:31.321Z,101551.25
2018-08-31T00:48:00.425Z,101553.31
2018-08-31T00:50:30.721Z,101549.88
2018-08-31T00:52:59.538Z,101548.98
2018-08-31T00:55:28.960Z,101547.32
2018-08-31T00:57:57.464Z,101546.48
2018-08-31T01:00:25.951Z,101542.64
2018-08-31T01:02:54.380Z,101541.81
2018-08-31T01:05:22.795Z,101540.95
2018-08-31T01:07:51.243Z,101535.77
2018-08-31T01:10:22.593Z,101534.03
2018-08-31T01:12:52.174Z,101535.68
2018-08-31T01:15:20.602Z,101532.23
2018-08-31T01:17:48.977Z,101536.08
2018-08-31T01:20:17.386Z,101538.21
2018-08-31T01:22:45.852Z,101540.78
2018-08-31T01:25:14.332Z,101543.43
2018-08-31T01:27:42.785Z,101537.92
2018-08-31T01:30:11.257Z,101536.64
2018-08-31T01:32:39.719Z,101536.17
2018-08-31T01:35:08.162Z,101531.82
2018-08-31T01:37:36.530Z,101534.78
2018-08-31T01:40:05.054Z,101528.37
2018-08-31T01:42:33.533Z,101526.68
2018-08-31T01:45:02.053Z,101530.98
2018-08-31T01:47:30.508Z,101528.39
2018-08-31T01:49:58.928Z,101527.48
2018-08-31T01:52:27.361Z,101528.66
2018-08-31T01:54:56.595Z,101534.69
2018-08-31T01:57:24.991Z,101532.12
2018-08-31T01:59:54.171Z,101530.75
2018-08-31T02:02:23.872Z,101536.26
2018-08-31T02:04:53.179Z,101531.48
2018-08-31T02:07:21.599Z,101532.33
2018-08-31T02:09:51.019Z,101539.61
2018-08-31T02:12:20.944Z,101534.90
2018-08-31T02:14:49.371Z,101537.89
2018-08-31T02:17:17.784Z,101535.85
2018-08-31T02:19:46.188Z,101532.86
2018-08-31T02:22:14.980Z,101493.22
2018-08-31T02:24:43.393Z,101512.28
2018-08-31T02:27:11.836Z,101530.50
2018-08-31T02:29:40.244Z,101531.38
2018-08-31T02:32:08.731Z,101531.02
2018-08-31T02:34:37.113Z,101530.62
2018-08-31T02:37:05.627Z,101535.34
2018-08-31T02:39:34.016Z,101529.78
2018-08-31T02:42:02.992Z,101527.67
2018-08-31T02:44:31.405Z,101525.50
2018-08-31T02:46:59.794Z,101528.88
2018-08-31T02:49:28.229Z,101533.52
2018-08-31T02:51:56.733Z,101527.84
2018-08-31T02:54:25.140Z,101529.03
2018-08-31T02:56:53.544Z,101535.44
2018-08-31T02:59:21.948Z,101528.13
2018-08-31T03:01:51.784Z,101530.67
2018-08-31T03:04:20.244Z,101523.00
2018-08-31T03:06:48.664Z,101529.93
2018-08-31T03:09:17.116Z,101526.11
2018-08-31T03:11:46.400Z,101531.66
2018-08-31T03:14:14.831Z,101528.27
2018-08-31T03:16:43.229Z,101524.83
2018-08-31T03:19:11.683Z,101526.98
2018-08-31T03:21:40.098Z,101526.98
2018-08-31T03:24:08.508Z,101524.34
2018-08-31T03:26:37.190Z,101523.05
2018-08-31T03:29:05.709Z,101526.94
2018-08-31T03:31:34.082Z,101519.65
2018-08-31T03:34:02.490Z,101519.67
2018-08-31T03:36:31.133Z,101517.91
2018-08-31T03:38:59.556Z,101516.22
2018-08-31T03:41:27.972Z,101517.11
2018-08-31T03:43:56.416Z,101520.55
2018-08-31T03:46:24.855Z,101520.15
2018-08-31T03:48:53.262Z,101519.78
2018-08-31T03:51:21.713Z,101520.15
2018-08-31T03:53:50.131Z,101520.15
2018-08-31T03:56:18.563Z,101517.14
2018-08-31T03:58:46.997Z,101518.86
2018-08-31T04:01:15.467Z,101521.44
2018-08-31T04:03:43.921Z,101518.44
2018-08-31T04:06:12.553Z,101519.70
2018-08-31T04:08:40.968Z,101520.51
2018-08-31T04:11:09.402Z,101522.20
2018-08-31T04:13:37.832Z,101523.05
2018-08-31T04:16:06.273Z,101521.72
2018-08-31T04:18:34.741Z,101519.55
2018-08-31T04:21:03.182Z,101515.14
2018-08-31T04:23:31.615Z,101525.02
2018-08-31T04:26:00.056Z,101524.62
2018-08-31T04:28:28.484Z,101522.05
2018-08-31T04:30:56.953Z,101522.45
2018-08-31T04:33:25.388Z,101518.64
2018-08-31T04:35:53.801Z,101526.77
2018-08-31T04:38:22.248Z,101523.31
2018-08-31T04:40:50.701Z,101525.86
2018-08-31T04:43:19.113Z,101533.15
2018-08-31T04:45:47.611Z,101530.56
2018-08-31T04:48:16.020Z,101533.12
2018-08-31T04:50:44.472Z,101535.26
2018-08-31T04:53:12.887Z,101526.64
2018-08-31T04:55:41.332Z,101535.22
2018-08-31T04:58:09.725Z,101539.49
2018-08-31T05:00:38.143Z,101541.16
2018-08-31T05:03:06.568Z,101537.74
2018-08-31T05:05:34.970Z,101542.00
2018-08-31T05:08:03.420Z,101544.12
2018-08-31T05:10:31.845Z,101540.59
2018-08-31T05:13:00.231Z,101547.48
2018-08-31T05:15:28.708Z,101544.16
2018-08-31T05:17:57.096Z,101543.37
2018-08-31T05:20:25.563Z,101549.81
2018-08-31T05:22:54.076Z,101552.42
2018-08-31T05:25:22.452Z,101543.45
2018-08-31T05:27:50.859Z,101547.28
2018-08-31T05:30:19.305Z,101546.91
2018-08-31T05:32:47.735Z,101550.76
2018-08-31T05:35:16.196Z,101546.52
2018-08-31T05:37:44.603Z,101545.25
2018-08-31T05:40:13.201Z,101551.56
2018-08-31T05:42:41.668Z,101553.00
2018-08-31T05:45:10.155Z,101559.31
2018-08-31T05:47:38.910Z,101557.66
2018-08-31T05:50:07.384Z,101559.00
2018-08-31T05:52:35.797Z,101555.17
2018-08-31T05:55:04.264Z,101564.63
2018-08-31T05:57:32.722Z,101565.53
2018-08-31T06:00:01.165Z,101568.52
2018-08-31T06:02:29.629Z,101524.09
2018-08-31T06:04:58.076Z,101573.78
2018-08-31T06:07:26.474Z,101568.70
2018-08-31T06:09:54.927Z,101574.34
2018-08-31T06:12:23.304Z,101579.15
2018-08-31T06:14:51.720Z,101586.08
2018-08-31T06:17:20.129Z,101585.25
2018-08-31T06:19:48.580Z,101579.69
2018-08-31T06:22:17.022Z,101585.77
2018-08-31T06:24:45.485Z,101581.59
2018-08-31T06:27:13.985Z,101582.95
2018-08-31T06:29:42.306Z,101587.28
2018-08-31T06:32:10.766Z,101589.52
2018-08-31T06:34:39.234Z,101595.95
2018-08-31T06:37:07.861Z,101594.25
2018-08-31T06:39:36.338Z,101599.84
2018-08-31T06:42:04.753Z,101596.08
2018-08-31T06:44:33.139Z,101594.45
2018-08-31T06:47:01.573Z,101594.50
2018-08-31T06:49:29.973Z,101599.23
2018-08-31T06:51:58.358Z,101593.64
2018-08-31T06:54:26.824Z,101597.53
2018-08-31T06:56:55.319Z,101600.14
2018-08-31T06:59:23.760Z,101600.19
2018-08-31T07:01:52.259Z,101598.95
2018-08-31T07:04:20.703Z,101598.98
2018-08-31T07:06:49.159Z,101594.72
2018-08-31T07:09:17.659Z,101594.33
2018-08-31T07:11:46.058Z,101596.93
2018-08-31T07:14:14.508Z,101601.29
2018-08-31T07:16:42.919Z,101597.45
2018-08-31T07:19:11.392Z,101602.64
2018-08-31T07:21:39.763Z,101600.94
2018-08-31T07:24:08.239Z,101598.80
2018-08-31T07:26:36.695Z,101585.42
2018-08-31T07:29:05.825Z,101610.05
2018-08-31T07:31:34.284Z,101608.80
2018-08-31T07:34:03.279Z,101616.56
2018-08-31T07:36:31.740Z,101617.01
2018-08-31T07:39:00.226Z,101615.73
2018-08-31T07:41:29.028Z,101615.34
2018-08-31T07:43:57.442Z,101619.25
2018-08-31T07:46:25.875Z,101624.00
2018-08-31T07:48:55.344Z,101619.30
2018-08-31T07:51:23.798Z,101621.46
2018-08-31T07:53:52.252Z,101624.50
2018-08-31T07:56:20.695Z,101621.51
2018-08-31T07:58:49.245Z,101621.56
2018-08-31T08:01:17.871Z,101624.61
2018-08-31T08:03:46.330Z,101627.20
2018-08-31T08:06:14.812Z,101625.06
2018-08-31T08:08:43.294Z,101631.13
2018-08-31T08:11:11.744Z,101624.33
2018-08-31T08:13:40.222Z,101632.11
2018-08-31T08:16:08.691Z,101630.51
2018-08-31T08:18:37.078Z,101628.81
2018-08-31T08:21:05.889Z,101624.55
2018-08-31T08:23:34.405Z,101629.34
2018-08-31T08:26:02.916Z,101628.05
2018-08-31T08:28:31.380Z,101633.23
2018-08-31T08:30:59.789Z,101630.66
2018-08-31T08:33:28.216Z,101631.11
2018-08-31T08:35:56.709Z,101635.44
2018-08-31T08:38:25.151Z,101634.58
2018-08-31T08:40:53.684Z,101636.77
2018-08-31T08:43:22.117Z,101630.78
2018-08-31T08:45:50.607Z,101629.52
2018-08-31T08:48:19.112Z,101627.38
2018-08-31T08:50:47.524Z,101628.75
2018-08-31T08:53:15.994Z,101629.63
2018-08-31T08:55:44.532Z,101631.78
2018-08-31T08:58:13.025Z,101633.92
2018-08-31T09:00:41.746Z,101628.77
2018-08-31T09:03:10.299Z,101635.27
2018-08-31T09:05:38.798Z,101627.95
2018-08-31T09:08:07.126Z,101624.52
2018-08-31T09:10:35.521Z,101626.69
2018-08-31T09:13:03.982Z,101625.48
2018-08-31T09:15:32.495Z,101619.47
2018-08-31T09:18:00.968Z,101622.05
2018-08-31T09:20:29.465Z,101619.52
2018-08-31T09:22:57.944Z,101620.81
2018-08-31T09:25:26.628Z,101620.47
2018-08-31T09:27:55.104Z,101617.84
2018-08-31T09:30:28.814Z,101373.33
2018-08-31T09:32:57.325Z,101622.19
2018-08-31T09:35:25.722Z,101624.34
2018-08-31T09:37:54.169Z,101626.06
2018-08-31T09:40:22.574Z,101618.75
2018-08-31T09:42:51.003Z,101618.27
2018-08-31T09:45:19.491Z,101613.11
2018-08-31T09:47:48.544Z,101610.13
2018-08-31T09:50:16.965Z,101610.05
2018-08-31T09:52:45.453Z,101606.69
2018-08-31T09:55:14.479Z,101608.42
2018-08-31T09:57:43.023Z,101603.68
2018-08-31T10:00:11.566Z,101607.13
2018-08-31T10:02:44.185Z,101603.68
2018-08-31T10:05:12.721Z,101604.11
2018-08-31T10:07:41.180Z,101601.96
2018-08-31T10:10:09.646Z,101604.12
2018-08-31T10:12:38.072Z,101598.09
2018-08-31T10:15:06.609Z,101598.09
2018-08-31T10:17:35.040Z,101595.53
2018-08-31T10:20:03.580Z,101591.23
2018-08-31T10:22:32.061Z,101592.09
2018-08-31T10:25:00.496Z,101588.67
2018-08-31T10:27:28.947Z,101592.97
2018-08-31T10:29:57.425Z,101589.11
2018-08-31T10:32:25.865Z,101583.52
2018-08-31T10:34:54.280Z,101586.95
2018-08-31T10:37:22.729Z,101586.08
2018-08-31T10:39:51.152Z,101575.72
2018-08-31T10:42:19.613Z,101580.89
2018-08-31T10:44:48.024Z,101574.90
2018-08-31T10:47:16.522Z,101579.20
2018-08-31T10:49:44.974Z,101580.91
2018-08-31T10:52:13.762Z,101576.61
2018-08-31T10:54:42.225Z,101574.89
2018-08-31T10:57:10.636Z,101572.28
2018-08-31T10:59:39.123Z,101574.01
2018-08-31T11:02:07.536Z,101571.00
2018-08-31T11:04:35.995Z,101572.70
2018-08-31T11:07:04.404Z,101568.78
2018-08-31T11:09:32.826Z,101568.30
2018-08-31T11:12:01.265Z,101574.82
2018-08-31T11:14:29.652Z,101567.06
2018-08-31T11:16:58.041Z,101574.85
2018-08-31T11:19:26.499Z,101577.44
2018-08-31T11:21:54.896Z,101573.99
2018-08-31T11:24:23.308Z,101572.28
2018-08-31T11:26:51.706Z,101566.67
2018-08-31T11:29:20.109Z,101565.36
2018-08-31T11:31:48.568Z,101567.06
2018-08-31T11:34:16.988Z,101563.97
2018-08-31T11:36:45.523Z,101566.92
2018-08-31T11:39:14.032Z,101569.91
2018-08-31T11:41:42.467Z,101567.34
2018-08-31T11:44:10.967Z,101564.34
2018-08-31T11:46:39.421Z,101569.09
2018-08-31T11:49:07.817Z,101562.23
2018-08-31T11:51:36.253Z,101562.22
2018-08-31T11:54:04.692Z,101563.09
2018-08-31T11:56:33.159Z,101572.16
2018-08-31T11:59:01.693Z,101567.86
2018-08-31T12:01:30.158Z,101569.60
2018-08-31T12:03:58.593Z,101560.97
2018-08-31T12:06:27.019Z,101567.87
2018-08-31T12:08:55.491Z,101560.97
2018-08-31T12:11:23.940Z,101571.30
2018-08-31T12:13:52.465Z,101564.83
2018-08-31T12:16:20.929Z,101563.53
2018-08-31T12:18:49.356Z,101564.36
2018-08-31T12:21:17.820Z,101566.94
2018-08-31T12:23:46.502Z,101558.31
2018-08-31T12:26:15.031Z,101559.63
2018-08-31T12:28:43.717Z,101560.05
2018-08-31T12:31:13.010Z,101552.75
2018-08-31T12:33:41.847Z,101558.37
2018-08-31T12:36:10.439Z,101556.64
2018-08-31T12:38:39.224Z,101565.27
2018-08-31T12:41:07.896Z,101565.72
2018-08-31T12:46:17.807Z,101566.14
2018-08-31T12:48:46.694Z,101562.66
2018-08-31T12:51:15.704Z,101566.55
2018-08-31T12:53:44.162Z,101565.27
2018-08-31T12:56:12.749Z,101564.42
2018-08-31T12:58:41.246Z,101570.89
2018-08-31T13:01:09.740Z,101565.22
2018-08-31T13:03:38.124Z,101563.05
2018-08-31T13:06:06.536Z,101564.59
2018-08-31T13:08:34.998Z,101548.38
2018-08-31T13:11:03.480Z,101550.93
2018-08-31T13:13:31.873Z,101543.78
2018-08-31T13:16:00.335Z,101544.03
2018-08-31T13:18:28.834Z,101539.17
2018-08-31T13:20:57.312Z,101536.58
2018-08-31T13:23:25.780Z,101546.06
2018-08-31T13:25:54.243Z,101546.53
2018-08-31T13:28:22.757Z,101533.80
2018-08-31T13:30:51.227Z,101533.95
2018-08-31T13:33:19.730Z,101535.30
2018-08-31T13:35:48.193Z,101525.94
2018-08-31T13:38:16.628Z,101530.25
2018-08-31T13:40:45.069Z,101530.55
2018-08-31T13:43:13.517Z,101529.23
2018-08-31T13:45:41.984Z,101529.31
2018-08-31T13:48:10.440Z,101530.17
2018-08-31T13:50:38.857Z,101530.67
2018-08-31T13:53:07.298Z,101535.52
2018-08-31T13:55:35.707Z,101528.71
2018-08-31T13:58:04.140Z,101530.97
2018-08-31T14:00:32.524Z,101540.50
2018-08-31T14:03:00.931Z,101539.64
2018-08-31T14:05:29.346Z,101532.64
2018-08-31T14:07:57.840Z,101530.45
2018-08-31T14:10:26.321Z,101532.58
2018-08-31T14:12:54.967Z,101538.56
2018-08-31T14:15:23.348Z,101540.20
2018-08-31T14:17:51.752Z,101540.61
2018-08-31T14:20:21.165Z,101539.38
2018-08-31T14:22:49.590Z,101539.86
2018-08-31T14:25:18.055Z,101544.66
2018-08-31T14:27:46.480Z,101536.47
2018-08-31T14:30:14.965Z,101537.80
2018-08-31T14:32:43.412Z,101546.02
2018-08-31T14:35:11.873Z,101533.91
2018-08-31T14:37:40.298Z,101533.97
2018-08-31T14:40:09.536Z,101538.77
2018-08-31T14:42:38.089Z,101537.92
2018-08-31T14:45:07.174Z,101540.52
2018-08-31T14:47:35.677Z,101537.91
2018-08-31T14:50:04.659Z,101532.72
2018-08-31T14:52:33.028Z,101527.09
2018-08-31T14:55:01.482Z,101535.75
2018-08-31T14:57:29.887Z,101527.55
2018-08-31T14:59:59.556Z,101527.52
2018-08-31T15:02:28.022Z,101533.48
2018-08-31T15:04:56.439Z,101530.41
2018-08-31T15:07:25.718Z,101528.20
2018-08-31T15:09:54.105Z,101530.32
2018-08-31T15:12:22.818Z,101530.69
2018-08-31T15:14:51.810Z,101528.95
2018-08-31T15:17:20.245Z,101528.95
2018-08-31T15:19:48.775Z,101528.08
2018-08-31T15:22:17.239Z,101534.48
2018-08-31T15:24:45.653Z,101531.47
2018-08-31T15:27:14.082Z,101532.77
2018-08-31T15:29:42.576Z,101531.97
2018-08-31T15:32:11.000Z,101533.70
2018-08-31T15:34:39.472Z,101533.22
2018-08-31T15:37:08.924Z,101527.16
2018-08-31T15:39:37.362Z,101526.34
2018-08-31T15:42:06.034Z,101521.22
2018-08-31T15:44:34.524Z,101528.95
2018-08-31T15:47:02.978Z,101530.74
2018-08-31T15:49:31.456Z,101530.32
2018-08-31T15:51:59.810Z,101530.34
2018-08-31T15:54:28.264Z,101534.25
2018-08-31T15:56:56.701Z,101531.66
2018-08-31T15:59:25.245Z,101531.66
2018-08-31T16:01:53.706Z,101533.86
2018-08-31T16:04:22.176Z,101528.69
2018-08-31T16:06:50.589Z,101535.61
2018-08-31T16:09:19.045Z,101539.09
2018-08-31T16:11:47.457Z,101542.12
2018-08-31T16:14:16.024Z,101542.13
2018-08-31T16:16:44.448Z,101547.78
2018-08-31T16:19:12.920Z,101545.22
2018-08-31T16:21:41.443Z,101546.09
2018-08-31T16:24:09.878Z,101540.50
2018-08-31T16:26:38.912Z,101532.25
2018-08-31T16:29:07.433Z,101538.31
2018-08-31T16:31:35.852Z,101540.06
2018-08-31T16:34:04.269Z,101537.08
2018-08-31T16:36:32.705Z,101535.39
2018-08-31T16:39:01.284Z,101541.48
2018-08-31T16:41:29.633Z,101535.45
2018-08-31T16:43:58.040Z,101539.36
2018-08-31T16:46:26.518Z,101546.28
2018-08-31T16:48:54.906Z,101541.14
2018-08-31T16:51:23.352Z,101541.62
2018-08-31T16:53:51.835Z,101543.36
2018-08-31T16:56:20.273Z,101544.64
2018-08-31T16:58:48.708Z,101541.64
2018-08-31T17:01:17.168Z,101552.05
2018-08-31T17:03:46.116Z,101544.27
2018-08-31T17:06:14.540Z,101543.39
2018-08-31T17:08:42.937Z,101547.70
2018-08-31T17:11:11.360Z,101545.53
2018-08-31T17:13:39.745Z,101546.84
2018-08-31T17:16:08.188Z,101554.17
2018-08-31T17:18:36.597Z,101555.03
2018-08-31T17:21:05.111Z,101554.59
2018-08-31T17:23:33.532Z,101554.16
2018-08-31T17:26:01.957Z,101556.75
2018-08-31T17:28:35.615Z,101551.14
2018-08-31T17:33:13.654Z,101563.66
2018-08-31T17:35:48.066Z,101566.73
2018-08-31T17:38:16.555Z,101565.45
2018-08-31T17:40:44.984Z,101563.38
2018-08-31T17:43:13.477Z,101569.87
2018-08-31T17:45:41.892Z,101572.06
2018-08-31T17:48:10.358Z,101568.66
2018-08-31T17:50:38.792Z,101577.28
2018-08-31T17:53:07.232Z,101576.45
2018-08-31T17:55:35.654Z,101577.78
2018-08-31T17:58:04.121Z,101583.40
2018-08-31T18:00:32.580Z,101583.41
2018-08-31T18:03:01.009Z,101584.33
2018-08-31T18:05:29.452Z,101588.63
2018-08-31T18:07:57.857Z,101596.42
2018-08-31T18:10:26.288Z,101596.43
2018-08-31T18:12:54.701Z,101593.83
2018-08-31T18:15:23.161Z,101594.70
2018-08-31T18:17:51.557Z,101599.45
2018-08-31T18:20:19.988Z,101595.15
2018-08-31T18:22:48.451Z,101610.22
2018-08-31T18:25:17.480Z,101609.37
2018-08-31T18:27:45.885Z,101610.66
2018-08-31T18:30:14.353Z,101613.67
2018-08-31T18:32:42.778Z,101616.27
2018-08-31T18:35:11.216Z,101618.41
2018-08-31T18:37:39.673Z,101615.41
2018-08-31T18:40:08.215Z,101625.75
2018-08-31T18:42:36.648Z,101621.84
2018-08-31T18:45:05.109Z,101624.86
2018-08-31T18:47:33.550Z,101619.23
2018-08-31T18:50:01.993Z,101636.06
2018-08-31T18:52:30.435Z,101634.30
2018-08-31T18:54:58.847Z,101636.45
2018-08-31T18:57:27.340Z,101637.73
2018-08-31T18:59:55.751Z,101645.89
2018-08-31T19:02:24.152Z,101649.77
2018-08-31T19:04:52.640Z,101647.16
2018-08-31T19:07:21.122Z,101649.31
2018-08-31T19:09:49.583Z,101647.94
2018-08-31T19:12:18.061Z,101656.11
2018-08-31T19:14:46.494Z,101656.53
2018-08-31T19:17:14.968Z,101657.81
2018-08-31T19:19:43.418Z,101667.24
2018-08-31T19:22:11.821Z,101668.53
2018-08-31T19:24:40.305Z,101675.47
2018-08-31T19:27:08.813Z,101676.28
2018-08-31T19:29:37.276Z,101672.82
2018-08-31T19:32:05.749Z,101679.25
2018-08-31T19:34:34.220Z,101677.48
2018-08-31T19:37:02.630Z,101677.46
2018-08-31T19:39:31.097Z,101679.16
2018-08-31T19:41:59.616Z,101685.13
2018-08-31T19:44:27.993Z,101689.00
2018-08-31T19:46:56.451Z,101685.11
2018-08-31T19:49:24.886Z,101683.38
2018-08-31T19:51:53.391Z,101681.67
2018-08-31T19:54:21.865Z,101688.97
2018-08-31T19:56:50.358Z,101688.52
2018-08-31T19:59:18.801Z,101690.67
2018-08-31T20:01:47.217Z,101689.36
2018-08-31T20:04:15.687Z,101693.23
2018-08-31T20:06:44.213Z,101693.69
2018-08-31T20:09:12.685Z,101697.15
2018-08-31T20:11:41.113Z,101695.44
2018-08-31T20:14:09.645Z,101701.04
2018-08-31T20:16:38.468Z,101703.19
2018-08-31T20:19:06.952Z,101707.47
2018-08-31T20:21:35.371Z,101704.02
2018-08-31T20:24:03.988Z,101707.02
2018-08-31T20:26:32.313Z,101709.93
2018-08-31T20:29:00.769Z,101717.66
2018-08-31T20:31:29.161Z,101717.20
2018-08-31T20:33:57.628Z,101715.02
2018-08-31T20:36:26.069Z,101723.14
2018-08-31T20:38:54.602Z,101724.00
2018-08-31T20:41:22.893Z,101726.59
2018-08-31T20:43:51.348Z,101728.31
2018-08-31T20:46:19.764Z,101723.95
2018-08-31T20:48:48.180Z,101724.77
2018-08-31T20:51:16.635Z,101728.58
2018-08-31T20:53:45.158Z,101726.86
2018-08-31T20:56:13.584Z,101735.39
2018-08-31T20:58:42.075Z,101736.95
2018-08-31T21:01:10.467Z,101740.75
2018-08-31T21:03:38.916Z,101736.80
2018-08-31T21:06:07.444Z,101741.92
2018-08-31T21:08:35.872Z,101742.77
2018-08-31T21:11:04.337Z,101744.74
2018-08-31T21:13:32.770Z,101746.36
2018-08-31T21:16:01.241Z,101743.66
2018-08-31T21:18:29.654Z,101746.70
2018-08-31T21:20:58.088Z,101746.39
2018-08-31T21:23:26.554Z,101743.91
2018-08-31T21:25:55.064Z,101751.75
2018-08-31T21:28:23.513Z,101750.06
2018-08-31T21:30:52.056Z,101750.91
2018-08-31T21:33:20.480Z,101754.19
2018-08-31T21:35:48.917Z,101749.72
2018-08-31T21:38:17.337Z,101751.39
2018-08-31T21:40:45.777Z,101751.77
2018-08-31T21:43:14.264Z,101757.20
2018-08-31T21:45:42.747Z,101756.16
2018-08-31T21:48:11.233Z,101754.34
2018-08-31T21:50:39.657Z,101755.99
2018-08-31T21:53:08.150Z,101759.36
2018-08-31T21:55:36.560Z,101754.98
2018-08-31T21:58:05.010Z,101754.44
2018-08-31T22:00:37.592Z,101755.67
2018-08-31T22:03:06.036Z,101750.52
2018-08-31T22:05:34.572Z,101754.38
2018-08-31T22:08:03.040Z,101759.22
2018-08-31T22:10:32.569Z,101764.31
2018-08-31T22:13:00.992Z,101756.45
2018-08-31T22:15:29.479Z,101760.64
2018-08-31T22:17:58.396Z,101764.78
2018-08-31T22:20:26.842Z,101767.73
2018-08-31T22:22:55.441Z,101763.80
2018-08-31T22:25:24.771Z,101763.21
2018-08-31T22:27:53.272Z,101764.45
2018-08-31T22:30:21.753Z,101767.07
2018-08-31T22:32:50.146Z,101770.86
2018-08-31T22:35:18.580Z,101768.36
2018-08-31T22:37:47.724Z,101760.17
2018-08-31T22:40:16.228Z,101762.20
2018-08-31T22:42:44.664Z,101769.06
2018-08-31T22:45:13.722Z,101762.11
2018-08-31T22:47:42.937Z,101766.31
2018-08-31T22:50:11.916Z,101761.47
2018-08-31T22:52:40.377Z,101762.83
2018-08-31T22:55:09.007Z,101766.66
2018-08-31T22:57:37.512Z,101767.52
2018-08-31T23:00:06.080Z,101763.30
2018-08-31T23:02:35.247Z,101763.09
2018-08-31T23:05:04.048Z,101758.38
2018-08-31T23:07:37.724Z,101766.43
2018-08-31T23:10:06.402Z,101761.23
2018-08-31T23:12:34.898Z,101763.36
2018-08-31T23:15:03.354Z,101764.64
2018-08-31T23:17:31.748Z,101758.62
2018-08-31T23:20:00.524Z,101763.55
2018-08-31T23:22:29.840Z,101756.73
2018-08-31T23:25:00.779Z,101761.97
2018-08-31T23:27:29.963Z,101766.09
2018-08-31T23:29:58.554Z,101765.14
2018-08-31T23:32:27.342Z,101763.95
2018-08-31T23:34:56.241Z,101766.94
2018-08-31T23:37:24.641Z,101766.52
2018-08-31T23:39:53.060Z,101771.50
2018-08-31T23:42:21.437Z,101768.55
2018-08-31T23:44:49.872Z,101769.36
2018-08-31T23:47:18.307Z,101765.42
2018-08-31T23:49:46.709Z,101767.95
2018-08-31T23:52:15.114Z,101763.62
2018-08-31T23:54:43.546Z,101764.52
2018-08-31T23:57:12.025Z,101761.12
2018-08-31T23:59:40.445Z,101767.53
